createdAt,value
2022-08-30T00:00:30.132Z,1.67
2022-08-30T00:03:18.158Z,1.90
2022-08-30T00:06:06.831Z,2.08
2022-08-30T00:08:54.548Z,2.30
2022-08-30T00:11:41.565Z,2.30
2022-08-30T00:14:29.597Z,2.22
2022-08-30T00:17:17.106Z,2.12
2022-08-30T00:20:07.515Z,2.30
2022-08-30T00:22:55.270Z,2.30
2022-08-30T00:25:43.165Z,2.20
2022-08-30T00:28:31.879Z,2.40
2022-08-30T00:31:19.372Z,2.12
2022-08-30T00:34:07.298Z,2.15
2022-08-30T00:36:54.434Z,2.02
2022-08-30T00:39:42.334Z,1.95
2022-08-30T00:42:29.215Z,2.10
2022-08-30T00:45:22.385Z,1.75
2022-08-30T00:48:10.110Z,1.95
2022-08-30T00:51:03.641Z,2.27
2022-08-30T00:53:54.941Z,1.80
2022-08-30T00:56:44.104Z,2.22
2022-08-30T00:59:32.410Z,1.80
2022-08-30T01:02:22.725Z,1.80
2022-08-30T01:05:16.183Z,2.42
2022-08-30T01:08:02.263Z,1.98
2022-08-30T01:10:50.733Z,2.15
2022-08-30T01:13:38.481Z,1.72
2022-08-30T01:16:28.330Z,1.95
2022-08-30T01:19:38.197Z,1.80
2022-08-30T01:22:47.967Z,1.90
2022-08-30T01:25:37.340Z,1.92
2022-08-30T01:28:27.692Z,2.02
2022-08-30T01:31:15.824Z,1.90
2022-08-30T01:34:05.168Z,2.30
2022-08-30T01:36:52.704Z,1.92
2022-08-30T01:39:40.380Z,2.00
2022-08-30T01:42:28.365Z,1.92
2022-08-30T01:45:15.995Z,2.00
2022-08-30T01:48:06.630Z,2.40
2022-08-30T01:50:52.323Z,2.12
2022-08-30T01:53:41.005Z,1.90
2022-08-30T01:56:30.395Z,2.10
2022-08-30T01:59:17.912Z,1.92
2022-08-30T02:02:06.299Z,1.77
2022-08-30T02:04:55.298Z,2.27
2022-08-30T02:07:42.890Z,2.10
2022-08-30T02:10:30.593Z,2.10
2022-08-30T02:13:18.056Z,2.37
2022-08-30T02:16:07.545Z,1.82
2022-08-30T02:18:57.155Z,1.95
2022-08-30T02:21:44.639Z,1.98
2022-08-30T02:24:32.124Z,2.02
2022-08-30T02:27:19.478Z,1.95
2022-08-30T02:30:09.224Z,1.90
2022-08-30T02:32:56.214Z,2.12
2022-08-30T02:35:43.288Z,1.90
2022-08-30T02:38:31.177Z,1.70
2022-08-30T02:41:20.927Z,2.22
2022-08-30T02:44:08.941Z,2.35
2022-08-30T02:46:56.282Z,2.00
2022-08-30T02:49:43.820Z,2.10
2022-08-30T02:52:30.689Z,1.95
2022-08-30T02:55:18.631Z,1.90
2022-08-30T02:58:06.230Z,1.92
2022-08-30T03:00:53.448Z,1.90
2022-08-30T03:03:42.474Z,2.05
2022-08-30T03:06:29.676Z,1.95
2022-08-30T03:09:17.154Z,2.45
2022-08-30T03:12:06.975Z,2.05
2022-08-30T03:14:54.961Z,2.12
2022-08-30T03:17:42.725Z,2.15
2022-08-30T03:20:30.225Z,1.77
2022-08-30T03:23:21.916Z,2.10
2022-08-30T03:26:07.985Z,2.22
2022-08-30T03:28:55.234Z,2.10
2022-08-30T03:31:53.098Z,2.10
2022-08-30T03:34:32.298Z,1.90
2022-08-30T03:37:22.347Z,2.17
2022-08-30T03:40:10.611Z,1.95
2022-08-30T03:42:57.668Z,1.75
2022-08-30T03:45:44.828Z,2.40
2022-08-30T03:48:32.152Z,2.20
2022-08-30T03:51:19.962Z,2.27
2022-08-30T03:54:07.453Z,2.27
2022-08-30T03:56:54.843Z,2.30
2022-08-30T03:59:42.093Z,2.22
2022-08-30T04:02:29.490Z,2.42
2022-08-30T04:05:18.535Z,1.98
2022-08-30T04:08:05.327Z,2.65
2022-08-30T04:10:53.487Z,2.10
2022-08-30T04:13:40.650Z,2.75
2022-08-30T04:16:28.169Z,2.30
2022-08-30T04:19:15.292Z,2.20
2022-08-30T04:22:02.209Z,2.37
2022-08-30T04:24:49.252Z,2.22
2022-08-30T04:27:36.639Z,2.20
2022-08-30T04:30:23.950Z,2.50
2022-08-30T04:33:12.799Z,2.60
2022-08-30T04:36:04.400Z,2.33
2022-08-30T04:38:51.639Z,2.47
2022-08-30T04:41:40.238Z,2.30
2022-08-30T04:44:27.426Z,2.50
2022-08-30T04:47:14.769Z,2.50
2022-08-30T04:50:02.005Z,2.90
2022-08-30T04:52:49.770Z,2.47
2022-08-30T04:55:37.506Z,2.62
2022-08-30T04:58:24.571Z,3.10
2022-08-30T05:01:20.897Z,2.47
2022-08-30T05:04:09.306Z,2.60
2022-08-30T05:06:56.739Z,2.50
2022-08-30T05:09:44.098Z,2.62
2022-08-30T05:12:31.117Z,2.80
2022-08-30T05:15:19.581Z,2.60
2022-08-30T05:18:08.245Z,2.60
2022-08-30T05:21:11.137Z,2.45
2022-08-30T05:24:02.760Z,2.90
2022-08-30T05:26:49.798Z,3.05
2022-08-30T05:29:36.952Z,2.60
2022-08-30T05:32:24.723Z,2.47
2022-08-30T05:35:13.825Z,2.67
2022-08-30T05:38:01.440Z,3.02
2022-08-30T05:40:54.573Z,2.70
2022-08-30T05:43:41.731Z,2.65
2022-08-30T05:49:19.600Z,2.72
2022-08-30T05:52:07.150Z,2.70
2022-08-30T05:54:59.117Z,3.08
2022-08-30T05:57:46.329Z,3.30
2022-08-30T06:00:33.411Z,3.05
2022-08-30T06:03:20.572Z,2.95
2022-08-30T06:06:08.135Z,2.75
2022-08-30T06:08:55.610Z,3.10
2022-08-30T06:11:45.456Z,2.90
2022-08-30T06:14:32.404Z,2.80
2022-08-30T06:17:19.615Z,2.70
2022-08-30T06:20:07.598Z,2.98
2022-08-30T06:22:55.191Z,2.67
2022-08-30T06:25:42.359Z,2.42
2022-08-30T06:28:29.510Z,2.62
2022-08-30T06:31:19.135Z,2.42
2022-08-30T06:34:07.376Z,3.00
2022-08-30T06:36:54.714Z,2.72
2022-08-30T06:39:41.476Z,2.83
2022-08-30T06:42:32.094Z,2.90
2022-08-30T06:45:20.429Z,2.90
2022-08-30T06:48:07.729Z,2.50
2022-08-30T06:50:55.941Z,2.72
2022-08-30T06:53:43.438Z,2.65
2022-08-30T06:56:31.157Z,2.95
2022-08-30T06:59:18.763Z,2.90
2022-08-30T07:02:06.837Z,2.75
2022-08-30T07:04:54.249Z,2.52
2022-08-30T07:07:41.706Z,2.05
2022-08-30T07:10:28.924Z,2.65
2022-08-30T07:13:17.424Z,2.50
2022-08-30T07:16:13.314Z,2.55
2022-08-30T07:19:02.699Z,2.80
2022-08-30T07:21:50.871Z,2.37
2022-08-30T07:24:38.009Z,2.60
2022-08-30T07:27:25.324Z,2.50
2022-08-30T07:30:12.816Z,2.50
2022-08-30T07:33:00.867Z,2.45
2022-08-30T07:35:48.347Z,2.37
2022-08-30T07:38:35.948Z,2.50
2022-08-30T07:41:26.307Z,2.45
2022-08-30T07:44:13.817Z,2.67
2022-08-30T07:47:01.155Z,3.00
2022-08-30T07:49:48.377Z,2.42
2022-08-30T07:55:23.476Z,2.47
2022-08-30T07:58:10.524Z,2.25
2022-08-30T08:00:59.443Z,2.40
2022-08-30T08:03:47.815Z,2.58
2022-08-30T08:06:38.850Z,2.50
2022-08-30T08:09:26.403Z,2.35
2022-08-30T08:12:13.574Z,2.75
2022-08-30T08:15:04.174Z,2.87
2022-08-30T08:17:50.297Z,2.33
2022-08-30T08:20:37.823Z,2.35
2022-08-30T08:23:25.271Z,2.60
2022-08-30T08:26:12.592Z,2.67
2022-08-30T08:28:59.919Z,2.20
2022-08-30T08:31:47.347Z,2.37
2022-08-30T08:34:35.830Z,2.10
2022-08-30T08:37:27.774Z,2.37
2022-08-30T08:40:14.809Z,2.45
2022-08-30T08:43:08.074Z,2.45
2022-08-30T08:46:15.314Z,2.50
2022-08-30T08:49:07.031Z,2.60
2022-08-30T08:52:14.044Z,2.65
2022-08-30T08:55:04.990Z,2.62
2022-08-30T08:57:52.471Z,2.58
2022-08-30T09:00:39.509Z,2.60
2022-08-30T09:03:29.953Z,2.40
2022-08-30T09:06:32.157Z,2.33
2022-08-30T09:09:28.508Z,2.90
2022-08-30T09:12:15.727Z,2.60
2022-08-30T09:15:09.469Z,3.10
2022-08-30T09:18:02.480Z,2.22
2022-08-30T09:20:51.503Z,2.55
2022-08-30T09:23:41.870Z,2.80
2022-08-30T09:26:32.339Z,2.62
2022-08-30T09:29:20.571Z,2.90
2022-08-30T09:32:24.765Z,2.90
2022-08-30T09:34:56.660Z,2.75
2022-08-30T09:37:56.455Z,2.95
2022-08-30T09:40:47.224Z,2.50
2022-08-30T09:43:35.841Z,2.85
2022-08-30T09:46:25.168Z,2.42
2022-08-30T09:49:39.309Z,2.52
2022-08-30T09:52:55.040Z,2.67
2022-08-30T09:55:50.482Z,2.40
2022-08-30T09:58:41.335Z,2.45
2022-08-30T10:01:43.308Z,2.42
2022-08-30T10:04:50.790Z,3.08
2022-08-30T10:08:00.355Z,2.50
2022-08-30T10:10:56.360Z,2.37
2022-08-30T10:14:02.732Z,2.67
2022-08-30T10:16:59.017Z,2.22
2022-08-30T10:19:58.267Z,2.52
2022-08-30T10:22:58.816Z,2.77
2022-08-30T10:25:58.316Z,3.20
2022-08-30T10:28:50.273Z,2.30
2022-08-30T10:31:52.679Z,2.45
2022-08-30T10:34:48.559Z,2.40
2022-08-30T10:37:39.918Z,2.20
2022-08-30T10:40:56.349Z,2.37
2022-08-30T10:44:02.259Z,2.10
2022-08-30T10:46:55.235Z,2.40
2022-08-30T10:49:45.402Z,2.20
2022-08-30T10:52:52.660Z,2.50
2022-08-30T10:55:52.198Z,2.92
2022-08-30T10:58:41.906Z,2.67
2022-08-30T11:01:32.134Z,2.30
2022-08-30T11:04:45.523Z,2.30
2022-08-30T11:08:03.365Z,2.20
2022-08-30T11:10:59.561Z,2.52
2022-08-30T11:13:47.745Z,2.60
2022-08-30T11:16:43.919Z,2.70
2022-08-30T11:19:40.010Z,2.08
2022-08-30T11:22:38.267Z,2.20
2022-08-30T11:25:53.345Z,2.10
2022-08-30T11:28:42.753Z,2.65
2022-08-30T11:31:36.273Z,2.62
2022-08-30T11:34:49.385Z,2.40
2022-08-30T11:37:44.832Z,2.60
2022-08-30T11:40:49.237Z,2.42
2022-08-30T11:43:41.383Z,2.40
2022-08-30T11:46:31.615Z,2.12
2022-08-30T11:49:25.089Z,2.50
2022-08-30T11:52:39.240Z,2.90
2022-08-30T11:55:41.088Z,3.02
2022-08-30T11:58:37.639Z,2.15
2022-08-30T12:01:42.006Z,2.47
2022-08-30T12:04:22.064Z,2.27
2022-08-30T12:07:10.423Z,2.77
2022-08-30T12:10:02.960Z,3.00
2022-08-30T12:12:51.708Z,2.80
2022-08-30T12:16:00.790Z,2.72
2022-08-30T12:18:51.503Z,2.67
2022-08-30T12:21:44.656Z,2.50
2022-08-30T12:24:35.976Z,2.67
2022-08-30T12:27:34.905Z,2.70
2022-08-30T12:30:28.022Z,3.10
2022-08-30T12:33:18.271Z,2.80
2022-08-30T12:36:06.506Z,2.30
2022-08-30T12:38:56.998Z,2.70
2022-08-30T12:41:46.026Z,2.90
2022-08-30T12:44:33.456Z,2.83
2022-08-30T12:47:23.820Z,2.98
2022-08-30T12:50:15.273Z,2.55
2022-08-30T12:53:13.924Z,2.62
2022-08-30T12:56:05.932Z,2.60
2022-08-30T12:58:55.404Z,2.70
2022-08-30T13:01:42.843Z,3.17
2022-08-30T13:04:32.984Z,2.35
2022-08-30T13:07:32.641Z,2.33
2022-08-30T13:10:20.009Z,2.55
2022-08-30T13:13:07.979Z,2.70
2022-08-30T13:15:55.317Z,2.85
2022-08-30T13:18:42.835Z,2.67
2022-08-30T13:21:32.394Z,2.58
2022-08-30T13:24:23.499Z,3.15
2022-08-30T13:27:09.668Z,2.40
2022-08-30T13:30:00.663Z,2.55
2022-08-30T13:32:47.909Z,2.40
2022-08-30T13:35:34.841Z,2.90
2022-08-30T13:38:23.665Z,2.80
2022-08-30T13:41:11.326Z,2.40
2022-08-30T13:44:15.879Z,3.10
2022-08-30T13:46:54.418Z,2.67
2022-08-30T13:49:44.780Z,2.98
2022-08-30T13:52:29.683Z,2.92
2022-08-30T13:55:17.214Z,2.55
2022-08-30T13:58:04.989Z,2.77
2022-08-30T14:00:53.830Z,2.70
2022-08-30T14:04:13.364Z,2.75
2022-08-30T14:06:33.893Z,2.72
2022-08-30T14:09:19.265Z,2.40
2022-08-30T14:15:14.817Z,2.52
2022-08-30T14:18:03.415Z,2.70
2022-08-30T14:20:51.149Z,2.87
2022-08-30T14:23:38.567Z,2.80
2022-08-30T14:26:32.836Z,2.92
2022-08-30T14:29:24.729Z,2.67
2022-08-30T14:32:12.145Z,2.80
2022-08-30T14:34:59.491Z,3.00
2022-08-30T14:37:48.500Z,2.80
2022-08-30T14:40:35.854Z,2.60
2022-08-30T14:43:23.485Z,2.60
2022-08-30T14:46:11.175Z,2.80
2022-08-30T14:48:58.552Z,2.95
2022-08-30T14:51:48.187Z,2.98
2022-08-30T14:54:35.320Z,3.47
2022-08-30T14:57:22.627Z,3.12
2022-08-30T15:00:12.591Z,2.75
2022-08-30T15:02:59.749Z,2.58
2022-08-30T15:05:53.119Z,2.62
2022-08-30T15:08:41.006Z,3.00
2022-08-30T15:11:29.585Z,2.50
2022-08-30T15:14:17.158Z,2.83
2022-08-30T15:17:04.460Z,2.45
2022-08-30T15:19:51.810Z,2.65
2022-08-30T15:22:38.968Z,2.50
2022-08-30T15:25:27.775Z,2.70
2022-08-30T15:28:16.755Z,2.92
2022-08-30T15:31:08.701Z,2.80
2022-08-30T15:33:53.304Z,2.60
2022-08-30T15:36:41.219Z,2.55
2022-08-30T15:39:29.173Z,2.90
2022-08-30T15:42:19.652Z,2.80
2022-08-30T15:45:07.836Z,2.70
2022-08-30T15:47:55.639Z,3.00
2022-08-30T15:50:43.509Z,2.60
2022-08-30T15:53:32.057Z,2.65
2022-08-30T15:56:19.519Z,2.60
2022-08-30T15:59:06.515Z,2.55
2022-08-30T16:01:54.326Z,2.55
2022-08-30T16:04:42.111Z,2.83
2022-08-30T16:07:30.508Z,2.75
2022-08-30T16:10:17.730Z,2.75
2022-08-30T16:13:05.534Z,2.47
2022-08-30T16:15:54.200Z,2.70
2022-08-30T16:18:41.975Z,2.60
2022-08-30T16:21:31.665Z,3.00
2022-08-30T16:24:22.703Z,2.95
2022-08-30T16:27:08.934Z,2.65
2022-08-30T16:29:56.504Z,2.87
2022-08-30T16:32:44.566Z,2.80
2022-08-30T16:35:31.820Z,2.77
2022-08-30T16:38:19.532Z,2.47
2022-08-30T16:41:13.136Z,2.85
2022-08-30T16:44:01.596Z,2.65
2022-08-30T16:46:52.984Z,2.75
2022-08-30T16:49:40.514Z,2.62
2022-08-30T16:52:27.850Z,3.33
2022-08-30T16:55:15.089Z,2.70
2022-08-30T16:58:04.401Z,3.02
2022-08-30T17:00:52.584Z,2.85
2022-08-30T17:03:40.023Z,2.87
2022-08-30T17:06:27.955Z,2.70
2022-08-30T17:09:15.482Z,2.70
2022-08-30T17:12:03.830Z,2.50
2022-08-30T17:14:51.035Z,2.72
2022-08-30T17:17:38.509Z,2.85
2022-08-30T17:20:29.572Z,3.25
2022-08-30T17:23:18.485Z,2.90
2022-08-30T17:26:06.700Z,2.80
2022-08-30T17:28:54.074Z,2.35
2022-08-30T17:31:44.537Z,3.37
2022-08-30T17:34:32.161Z,2.77
2022-08-30T17:37:20.699Z,3.33
2022-08-30T17:40:09.453Z,2.77
2022-08-30T17:42:58.462Z,3.00
2022-08-30T17:45:46.190Z,2.85
2022-08-30T17:48:33.430Z,2.72
2022-08-30T17:51:20.736Z,3.25
2022-08-30T17:54:08.285Z,2.92
2022-08-30T17:56:57.259Z,2.98
2022-08-30T17:59:45.515Z,2.50
2022-08-30T18:02:32.906Z,2.87
2022-08-30T18:05:24.844Z,2.75
2022-08-30T18:08:09.547Z,3.00
2022-08-30T18:10:56.941Z,2.85
2022-08-30T18:13:44.192Z,3.08
2022-08-30T18:16:34.921Z,2.95
2022-08-30T18:19:23.732Z,3.35
2022-08-30T18:22:11.176Z,2.80
2022-08-30T18:25:02.222Z,2.92
2022-08-30T18:27:57.165Z,2.98
2022-08-30T18:30:41.487Z,3.00
2022-08-30T18:33:27.513Z,3.15
2022-08-30T18:36:16.360Z,3.02
2022-08-30T18:39:05.400Z,3.10
2022-08-30T18:41:54.697Z,2.70
2022-08-30T18:44:43.450Z,2.98
2022-08-30T18:47:31.827Z,2.72
2022-08-30T18:50:20.543Z,3.08
2022-08-30T18:53:08.071Z,2.90
2022-08-30T18:55:57.446Z,2.80
2022-08-30T18:58:47.531Z,2.75
2022-08-30T19:01:35.073Z,3.40
2022-08-30T19:04:30.296Z,3.12
2022-08-30T19:07:15.716Z,2.98
2022-08-30T19:10:04.504Z,3.75
2022-08-30T19:12:52.139Z,2.72
2022-08-30T19:15:40.256Z,3.33
2022-08-30T19:18:27.700Z,2.50
2022-08-30T19:21:15.244Z,2.95
2022-08-30T19:24:05.189Z,2.70
2022-08-30T19:26:52.294Z,3.10
2022-08-30T19:29:40.944Z,2.62
2022-08-30T19:32:28.627Z,2.77
2022-08-30T19:35:17.777Z,2.60
2022-08-30T19:38:05.675Z,2.90
2022-08-30T19:40:59.007Z,3.02
2022-08-30T19:43:46.370Z,2.98
2022-08-30T19:46:34.644Z,2.95
2022-08-30T19:49:23.420Z,2.33
2022-08-30T19:52:11.459Z,2.95
2022-08-30T19:55:01.043Z,3.00
2022-08-30T19:57:49.563Z,2.98
2022-08-30T20:00:41.911Z,2.70
2022-08-30T20:03:26.461Z,2.62
2022-08-30T20:06:14.311Z,2.83
2022-08-30T20:09:02.609Z,2.80
2022-08-30T20:11:52.559Z,3.40
2022-08-30T20:14:39.185Z,2.92
2022-08-30T20:17:37.778Z,2.72
2022-08-30T20:20:18.112Z,2.83
2022-08-30T20:23:08.135Z,2.77
2022-08-30T20:25:56.956Z,3.00
2022-08-30T20:28:44.251Z,2.87
2022-08-30T20:31:32.007Z,3.12
2022-08-30T20:34:20.907Z,3.00
2022-08-30T20:37:09.723Z,2.98
2022-08-30T20:39:58.080Z,2.60
2022-08-30T20:42:46.590Z,2.87
2022-08-30T20:45:34.694Z,3.20
2022-08-30T20:48:22.739Z,2.62
2022-08-30T20:51:15.264Z,2.70
2022-08-30T20:54:03.197Z,2.83
2022-08-30T20:56:51.488Z,2.87
2022-08-30T20:59:39.427Z,2.50
2022-08-30T21:02:26.968Z,2.67
2022-08-30T21:05:15.560Z,2.45
2022-08-30T21:08:02.599Z,2.20
2022-08-30T21:10:51.808Z,2.90
2022-08-30T21:13:39.655Z,2.90
2022-08-30T21:16:27.232Z,2.50
2022-08-30T21:19:14.643Z,2.77
2022-08-30T21:22:03.728Z,2.75
2022-08-30T21:24:51.784Z,3.15
2022-08-30T21:27:39.095Z,2.60
2022-08-30T21:30:26.509Z,2.77
2022-08-30T21:33:13.873Z,2.70
2022-08-30T21:36:19.242Z,2.72
2022-08-30T21:39:07.569Z,2.77
2022-08-30T21:41:56.904Z,2.70
2022-08-30T21:44:44.194Z,2.98
2022-08-30T21:47:31.771Z,3.25
2022-08-30T21:50:19.363Z,2.98
2022-08-30T21:53:07.049Z,2.80
2022-08-30T21:55:54.532Z,2.90
2022-08-30T21:58:43.177Z,2.90
2022-08-30T22:01:31.238Z,2.83
2022-08-30T22:04:21.966Z,3.02
2022-08-30T22:07:08.354Z,2.95
2022-08-30T22:09:55.925Z,3.02
2022-08-30T22:12:43.462Z,2.90
2022-08-30T22:15:30.885Z,2.95
2022-08-30T22:18:18.101Z,2.83
2022-08-30T22:21:07.011Z,2.70
2022-08-30T22:23:54.780Z,2.52
2022-08-30T22:26:42.055Z,3.02
2022-08-30T22:29:30.451Z,3.40
2022-08-30T22:32:17.859Z,3.08
2022-08-30T22:35:05.442Z,2.77
2022-08-30T22:37:53.171Z,2.90
2022-08-30T22:40:53.636Z,2.83
2022-08-30T22:43:41.852Z,3.20
2022-08-30T22:46:34.255Z,2.65
2022-08-30T22:49:18.765Z,2.70
2022-08-30T22:52:06.659Z,3.10
2022-08-30T22:54:53.921Z,2.83
2022-08-30T22:57:42.883Z,3.10
2022-08-30T23:00:30.372Z,3.50
2022-08-30T23:03:18.549Z,3.20
2022-08-30T23:06:06.280Z,3.15
2022-08-30T23:08:53.848Z,3.52
2022-08-30T23:11:40.819Z,3.62
2022-08-30T23:14:28.370Z,3.35
2022-08-30T23:17:16.480Z,2.77
2022-08-30T23:20:04.926Z,3.05
2022-08-30T23:23:00.194Z,2.92
2022-08-30T23:26:05.760Z,3.10
2022-08-30T23:29:11.363Z,2.95
2022-08-30T23:32:17.008Z,3.55
2022-08-30T23:35:28.992Z,3.00
2022-08-30T23:38:30.824Z,3.05
2022-08-30T23:41:36.744Z,3.25
2022-08-30T23:44:42.460Z,3.30
2022-08-30T23:47:47.956Z,3.40
2022-08-30T23:50:53.999Z,3.65
2022-08-30T23:53:59.589Z,3.00
2022-08-30T23:57:05.268Z,3.40
